Map

Track Data

SID SEASON NUMBER BASIN SUBBASIN NAME ISO_TIME NATURE LAT LON WMO_WIND WMO_PRES WMO_AGENCY TRACK_TYPE DIST2LAND LANDFALL IFLAG USA_AGENCY USA_ATCF_ID USA_LAT USA_LON USA_RECORD USA_STATUS USA_WIND USA_PRES USA_SSHS USA_R34_NE USA_R34_SE USA_R34_SW USA_R34_NW USA_R50_NE USA_R50_SE USA_R50_SW USA_R50_NW USA_R64_NE USA_R64_SE USA_R64_SW USA_R64_NW USA_POCI USA_ROCI USA_RMW USA_EYE TOKYO_LAT TOKYO_LON TOKYO_GRADE TOKYO_WIND TOKYO_PRES TOKYO_R50_DIR TOKYO_R50_LONG TOKYO_R50_SHORT TOKYO_R30_DIR TOKYO_R30_LONG TOKYO_R30_SHORT TOKYO_LAND CMA_LAT CMA_LON CMA_CAT CMA_WIND CMA_PRES HKO_LAT HKO_LON HKO_CAT HKO_WIND HKO_PRES NEWDELHI_LAT NEWDELHI_LON NEWDELHI_GRADE NEWDELHI_WIND NEWDELHI_PRES NEWDELHI_CI NEWDELHI_DP NEWDELHI_POCI REUNION_LAT REUNION_LON REUNION_TYPE REUNION_WIND REUNION_PRES REUNION_TNUM REUNION_CI REUNION_RMW REUNION_R34_NE REUNION_R34_SE REUNION_R34_SW REUNION_R34_NW REUNION_R50_NE REUNION_R50_SE REUNION_R50_SW REUNION_R50_NW REUNION_R64_NE REUNION_R64_SE REUNION_R64_SW REUNION_R64_NW BOM_LAT BOM_LON BOM_TYPE BOM_WIND BOM_PRES BOM_TNUM BOM_CI BOM_RMW BOM_R34_NE BOM_R34_SE BOM_R34_SW BOM_R34_NW BOM_R50_NE BOM_R50_SE BOM_R50_SW BOM_R50_NW BOM_R64_NE BOM_R64_SE BOM_R64_SW BOM_R64_NW BOM_ROCI BOM_POCI BOM_EYE BOM_POS_METHOD BOM_PRES_METHOD NADI_LAT NADI_LON NADI_CAT NADI_WIND NADI_PRES WELLINGTON_LAT WELLINGTON_LON WELLINGTON_WIND WELLINGTON_PRES DS824_LAT DS824_LON DS824_STAGE DS824_WIND DS824_PRES TD9636_LAT TD9636_LON TD9636_STAGE TD9636_WIND TD9636_PRES TD9635_LAT TD9635_LON TD9635_WIND TD9635_PRES TD9635_ROCI NEUMANN_LAT NEUMANN_LON NEUMANN_CLASS NEUMANN_WIND NEUMANN_PRES MLC_LAT MLC_LON MLC_CLASS MLC_WIND MLC_PRES USA_GUST BOM_GUST BOM_GUST_PER REUNION_GUST REUNION_GUST_PER USA_SEAHGT USA_SEARAD_NE USA_SEARAD_SE USA_SEARAD_SW USA_SEARAD_NW STORM_SPEED STORM_DIR
1917032S13058 1917 7 SI MM NOT_NAMED 1917-02-01 06:00:00 NR -12.5000 58.3000 reunion spur-split 852 852 _____O________ -1 -12.5000 58.3000 99 9.90000 3 252
1917032S13058 1917 7 SI MM NOT_NAMED 1917-02-01 09:00:00 NR -12.5401 58.1694 spur-split 852 839 _____P________ -1 -12.5401 58.1694 99 3 252
1917032S13058 1917 7 SI MM NOT_NAMED 1917-02-01 12:00:00 NR -12.5811 58.0358 spur-split 839 839 _____P________ -1 -12.5811 58.0358 99 3 252
1917032S13058 1917 7 SI MM NOT_NAMED 1917-02-01 15:00:00 NR -12.6239 57.8961 spur-split 839 828 _____P________ -1 -12.6239 57.8961 99 3 253
1917032S13058 1917 7 SI MM NOT_NAMED 1917-02-01 18:00:00 NR -12.6696 57.7473 spur-split 826 816 _____P________ -1 -12.6696 57.7473 99 3 252
1917032S13058 1917 7 SI MM NOT_NAMED 1917-02-01 21:00:00 NR -12.7192 57.5863 spur-split 816 791 _____P________ -1 -12.7192 57.5863 99 3 252
1917032S13058 1917 7 SI MM NOT_NAMED 1917-02-02 00:00:00 NR -12.7734 57.4101 spur-split 791 771 _____P________ -1 -12.7734 57.4101 99 4 252
1917032S13058 1917 7 SI MM NOT_NAMED 1917-02-02 03:00:00 NR -12.8334 57.2157 spur-split 771 747 _____P________ -1 -12.8334 57.2157 99 4 252
1917032S13058 1917 7 SI MM NOT_NAMED 1917-02-02 06:00:00 NR -12.9000 57.0000 reunion spur-split 747 722 _____O________ -1 -12.9000 57.0000 99 9.90000 5 252
1917032S13058 1917 7 SI MM NOT_NAMED 1917-02-02 09:00:00 NR -12.9738 56.7612 spur-split 722 692 _____P________ -1 -12.9738 56.7612 99 5 252
1917032S13058 1917 7 SI MM NOT_NAMED 1917-02-02 12:00:00 NR -13.0538 56.5027 spur-split 688 658 _____P________ -1 -13.0538 56.5027 99 5 252
1917032S13058 1917 7 SI MM NOT_NAMED 1917-02-02 15:00:00 NR -13.1390 56.2291 spur-split 658 633 _____P________ -1 -13.1390 56.2291 99 6 252
1917032S13058 1917 7 SI MM NOT_NAMED 1917-02-02 18:00:00 NR -13.2281 55.9452 spur-split 623 599 _____P________ -1 -13.2281 55.9452 99 6 252
1917032S13058 1917 7 SI MM NOT_NAMED 1917-02-02 21:00:00 NR -13.3198 55.6556 spur-split 599 565 _____P________ -1 -13.3198 55.6556 99 6 252
1917032S13058 1917 7 SI MM NOT_NAMED 1917-02-03 00:00:00 NR -13.4132 55.3651 spur-split 565 531 _____P________ -1 -13.4132 55.3651 99 6 252
1917032S13058 1917 7 SI MM NOT_NAMED 1917-02-03 03:00:00 NR -13.5069 55.0783 spur-split 531 496 _____P________ -1 -13.5069 55.0783 99 6 251
1917032S13058 1917 7 SI MM NOT_NAMED 1917-02-03 06:00:00 NR -13.6000 54.8000 reunion spur-split 496 472 _____O________ -1 -13.6000 54.8000 99 9.90000 5 250
1917032S13058 1917 7 SI MM NOT_NAMED 1917-02-03 09:00:00 NR -13.6871 54.5560 spur-split 472 438 _____P________ -1 -13.6871 54.5560 99 5 249
1917032S13058 1917 7 SI MM NOT_NAMED 1917-02-03 12:00:00 NR -13.7743 54.3193 spur-split 438 414 _____P________ -1 -13.7743 54.3193 99 5 249
1917032S13058 1917 7 SI MM NOT_NAMED 1917-02-03 15:00:00 NR -13.8616 54.0872 spur-split 414 393 _____P________ -1 -13.8616 54.0872 99 5 249
1917032S13058 1917 7 SI MM NOT_NAMED 1917-02-03 18:00:00 NR -13.9490 53.8570 spur-split 393 359 _____P________ -1 -13.9490 53.8570 99 5 249
1917032S13058 1917 7 SI MM NOT_NAMED 1917-02-03 21:00:00 NR -14.0365 53.6259 spur-split 359 335 _____P________ -1 -14.0365 53.6259 99 5 249
1917032S13058 1917 7 SI MM NOT_NAMED 1917-02-04 00:00:00 NR -14.1242 53.3912 spur-split 335 311 _____P________ -1 -14.1242 53.3912 99 5 249
1917032S13058 1917 7 SI MM NOT_NAMED 1917-02-04 03:00:00 NR -14.2121 53.1501 spur-split 311 277 _____P________ -1 -14.2121 53.1501 99 5 250
1917032S13058 1917 7 SI MM NOT_NAMED 1917-02-04 06:00:00 NR -14.3000 52.9000 reunion spur-split 277 252 _____O________ -1 -14.3000 52.9000 99 9.90000 5 251
1917032S13058 1917 7 SI MM NOT_NAMED 1917-02-04 09:00:00 NR -14.3674 52.6720 spur-split 252 233 _____P________ -1 -14.3674 52.6720 99 5 253
1917032S13058 1917 7 SI MM NOT_NAMED 1917-02-04 12:00:00 NR -14.4324 52.4408 spur-split 223 198 _____P________ -1 -14.4324 52.4408 99 5 254
1917032S13058 1917 7 SI MM NOT_NAMED 1917-02-04 15:00:00 NR -14.4991 52.1994 spur-split 198 174 _____P________ -1 -14.4991 52.1994 99 5 254
1917032S13058 1917 7 SI MM NOT_NAMED 1917-02-04 18:00:00 NR -14.5717 51.9412 spur-split 164 145 _____P________ -1 -14.5717 51.9412 99 5 253
1917032S13058 1917 7 SI MM NOT_NAMED 1917-02-04 21:00:00 NR -14.6540 51.6590 spur-split 140 111 _____P________ -1 -14.6540 51.6590 99 6 253
1917032S13058 1917 7 SI MM NOT_NAMED 1917-02-05 00:00:00 NR -14.7503 51.3462 spur-split 96 63 _____P________ -1 -14.7503 51.3462 99 7 252
1917032S13058 1917 7 SI MM NOT_NAMED 1917-02-05 03:00:00 NR -14.8643 50.9955 spur-split 63 24 _____P________ -1 -14.8643 50.9955 99 8 251
1917032S13058 1917 7 SI MM NOT_NAMED 1917-02-05 06:00:00 NR -15.0000 50.6000 reunion spur-split 24 0 _____O________ -1 -15.0000 50.6000 99 9.90000 9 251
1917032S13058 1917 7 SI MM NOT_NAMED 1917-02-05 09:00:00 NR -15.1545 50.1099 spur-split 0 0 _____P________ -1 -15.1545 50.1099 99 10 252
1917032S13058 1917 7 SI MM NOT_NAMED 1917-02-05 12:00:00 NR -15.3283 49.5694 spur-split 0 0 _____P________ -1 -15.3283 49.5694 99 11 251
1917032S13058 1917 7 SI MM NOT_NAMED 1917-02-05 15:00:00 NR -15.5199 48.9933 spur-split 0 0 _____P________ -1 -15.5199 48.9933 99 12 251
1917032S13058 1917 7 SI MM NOT_NAMED 1917-02-05 18:00:00 NR -15.7279 48.3964 spur-split 0 0 _____P________ -1 -15.7279 48.3964 99 12 250
1917032S13058 1917 7 SI MM NOT_NAMED 1917-02-05 21:00:00 NR -15.9509 47.7936 spur-split 0 0 _____P________ -1 -15.9509 47.7936 99 12 248
1917032S13058 1917 7 SI MM NOT_NAMED 1917-02-06 00:00:00 NR -16.1878 47.1999 spur-split 0 0 _____P________ -1 -16.1878 47.1999 99 12 246
1917032S13058 1917 7 SI MM NOT_NAMED 1917-02-06 03:00:00 NR -16.4378 46.6304 spur-split 0 0 _____P________ -1 -16.4378 46.6304 99 12 244
1917032S13058 1917 7 SI MM NOT_NAMED 1917-02-06 06:00:00 NR -16.7000 46.1000 reunion spur-split 0 0 _____O________ -1 -16.7000 46.1000 99 9.90000 11 244
1917032S13058 1917 7 SI MM NOT_NAMED 1917-02-06 09:00:00 NR -16.9420 45.5620 spur-split 0 0 _____P________ -1 -16.9420 45.5620 99 11 244
1917032S13058 1917 7 SI MM NOT_NAMED 1917-02-06 12:00:00 NR -17.1960 45.0453 spur-split 0 0 _____P________ -1 -17.1960 45.0453 99 11 241
1917032S13058 1917 7 SI MM NOT_NAMED 1917-02-06 15:00:00 NR -17.4642 44.5643 spur-split 0 0 _____P________ -1 -17.4642 44.5643 99 10 238
1917032S13058 1917 7 SI MM NOT_NAMED 1917-02-06 18:00:00 NR -17.7488 44.1333 spur-split 0 0 _____P________ -1 -17.7488 44.1333 99 10 232
1917032S13058 1917 7 SI MM NOT_NAMED 1917-02-06 21:00:00 NR -18.0522 43.7667 spur-split 21 21 _____P________ -1 -18.0522 43.7667 99 9 225
1917032S13058 1917 7 SI MM NOT_NAMED 1917-02-07 00:00:00 NR -18.3769 43.4791 spur-split 52 52 _____P________ -1 -18.3769 43.4791 99 8 214
1917032S13058 1917 7 SI MM NOT_NAMED 1917-02-07 03:00:00 NR -18.7253 43.2852 spur-split 81 81 _____P________ -1 -18.7253 43.2852 99 8 200
1917032S13058 1917 7 SI MM NOT_NAMED 1917-02-07 06:00:00 NR -19.1000 43.2000 reunion spur-split 105 104 _____O________ -1 -19.1000 43.2000 99 9.90000 8 0
1917032S13058 1917 7 SI MM NOT_NAMED 1917-02-07 09:00:00 NR -19.5500 43.2819 spur-split 104 83 _____P________ -1 -19.5500 43.2819 99 10 164
1917032S13058 1917 7 SI MM NOT_NAMED 1917-02-07 12:00:00 NR -20.0340 43.4817 spur-split 83 30 _____P________ -1 -20.0340 43.4817 99 11 155
1917032S13058 1917 7 SI MM NOT_NAMED 1917-02-07 15:00:00 NR -20.5368 43.7739 spur-split 30 0 _____P________ -1 -20.5368 43.7739 99 12 149
1917032S13058 1917 7 SI MM NOT_NAMED 1917-02-07 18:00:00 NR -21.0431 44.1327 spur-split 0 0 _____P________ -1 -21.0431 44.1327 99 12 145
1917032S13058 1917 7 SI MM NOT_NAMED 1917-02-07 21:00:00 NR -21.5375 44.5319 spur-split 0 0 _____P________ -1 -21.5375 44.5319 99 12 142
1917032S13058 1917 7 SI MM NOT_NAMED 1917-02-08 00:00:00 NR -22.0049 44.9444 spur-split 0 0 _____P________ -1 -22.0049 44.9444 99 12 140
1917032S13058 1917 7 SI MM NOT_NAMED 1917-02-08 03:00:00 NR -22.4306 45.3431 spur-split 0 0 _____P________ -1 -22.4306 45.3431 99 11 139
1917032S13058 1917 7 SI MM NOT_NAMED 1917-02-08 06:00:00 NR -22.8000 45.7000 reunion spur-split 0 0 _____O________ -1 -22.8000 45.7000 99 9.90000 8 142
1917032S13058 1917 7 SI MM NOT_NAMED 1917-02-08 09:00:00 NR -23.0256 45.8488 spur-split 0 0 _____P________ -1 -23.0256 45.8488 99 5 149
1917032S13058 1917 7 SI MM NOT_NAMED 1917-02-08 12:00:00 NR -23.1941 45.9600 spur-split 0 0 _____P________ -1 -23.1941 45.9600 99 4 148
1917032S13058 1917 7 SI MM NOT_NAMED 1917-02-08 15:00:00 NR -23.3232 46.0505 spur-split 0 0 _____P________ -1 -23.3232 46.0505 99 3 145
1917032S13058 1917 7 SI MM NOT_NAMED 1917-02-08 18:00:00 NR -23.4309 46.1376 spur-split 0 0 _____P________ -1 -23.4309 46.1376 99 3 140
1917032S13058 1917 7 SI MM NOT_NAMED 1917-02-08 21:00:00 NR -23.5347 46.2386 spur-split 0 0 _____P________ -1 -23.5347 46.2386 99 3 136
1917032S13058 1917 7 SI MM NOT_NAMED 1917-02-09 00:00:00 NR -23.6525 46.3709 spur-split 0 0 _____P________ -1 -23.6525 46.3709 99 4 133
1917032S13058 1917 7 SI MM NOT_NAMED 1917-02-09 03:00:00 NR -23.8017 46.5521 spur-split 0 0 _____P________ -1 -23.8017 46.5521 99 5 132
1917032S13058 1917 7 SI MM NOT_NAMED 1917-02-09 06:00:00 NR -24.0000 46.8000 reunion spur-split 0 0 _____O________ -1 -24.0000 46.8000 99 9.90000 8 132
1917032S13058 1917 7 SI MM NOT_NAMED 1917-02-09 09:00:00 NR -24.3303 47.1878 spur-split 0 0 _____P________ -1 -24.3303 47.1878 99 10 133
1917032S13058 1917 7 SI MM NOT_NAMED 1917-02-09 12:00:00 NR -24.7053 47.6429 spur-split 37 37 _____P________ -1 -24.7053 47.6429 99 12 132
1917032S13058 1917 7 SI MM NOT_NAMED 1917-02-09 15:00:00 NR -25.1124 48.1517 spur-split 110 110 _____P________ -1 -25.1124 48.1517 99 13 131
1917032S13058 1917 7 SI MM NOT_NAMED 1917-02-09 18:00:00 NR -25.5391 48.7003 spur-split 170 170 _____P________ -1 -25.5391 48.7003 99 13 130
1917032S13058 1917 7 SI MM NOT_NAMED 1917-02-09 21:00:00 NR -25.9731 49.2743 spur-split 247 247 _____P________ -1 -25.9731 49.2743 99 14 130
1917032S13058 1917 7 SI MM NOT_NAMED 1917-02-10 00:00:00 NR -26.4025 49.8591 spur-split 320 320 _____P________ -1 -26.4025 49.8591 99 13 129
1917032S13058 1917 7 SI MM NOT_NAMED 1917-02-10 03:00:00 NR -26.8153 50.4395 spur-split 386 386 _____P________ -1 -26.8153 50.4395 99 13 128
1917032S13058 1917 7 SI MM NOT_NAMED 1917-02-10 06:00:00 NR -27.2000 51.0000 reunion spur-split 460 460 _____O________ -1 -27.2000 51.0000 99 9.90000 12 127
1917032S13058 1917 7 SI MM NOT_NAMED 1917-02-10 09:00:00 NR -27.5214 51.4866 spur-split 519 519 _____P________ -1 -27.5214 51.4866 99 11 126
1917032S13058 1917 7 SI MM NOT_NAMED 1917-02-10 12:00:00 NR -27.8213 51.9602 spur-split 579 579 _____P________ -1 -27.8213 51.9602 99 10 125
1917032S13058 1917 7 SI MM NOT_NAMED 1917-02-10 15:00:00 NR -28.1021 52.4221 spur-split 630 630 _____P________ -1 -28.1021 52.4221 99 10 124
1917032S13058 1917 7 SI MM NOT_NAMED 1917-02-10 18:00:00 NR -28.3662 52.8734 spur-split 689 689 _____P________ -1 -28.3662 52.8734 99 9 123
1917032S13058 1917 7 SI MM NOT_NAMED 1917-02-10 21:00:00 NR -28.6157 53.3155 spur-split 734 734 _____P________ -1 -28.6157 53.3155 99 9 122
1917032S13058 1917 7 SI MM NOT_NAMED 1917-02-11 00:00:00 NR -28.8531 53.7497 spur-split 785 785 _____P________ -1 -28.8531 53.7497 99 9 122
1917032S13058 1917 7 SI MM NOT_NAMED 1917-02-11 03:00:00 NR -29.0804 54.1774 spur-split 838 838 _____P________ -1 -29.0804 54.1774 99 9 121
1917032S13058 1917 7 SI MM NOT_NAMED 1917-02-11 06:00:00 NR -29.3000 54.6000 reunion spur-split 882 882 _____O________ -1 -29.3000 54.6000 99 9.90000 9 121
1917032S13058 1917 7 SI MM NOT_NAMED 1917-02-11 09:00:00 NR -29.5464 55.0683 spur-split 906 906 _____P________ -1 -29.5464 55.0683 99 9 121
1917032S13058 1917 7 SI MM NOT_NAMED 1917-02-11 12:00:00 NR -29.7853 55.5350 spur-split 938 938 _____P________ -1 -29.7853 55.5350 99 9 120
1917032S13058 1917 7 SI MM NOT_NAMED 1917-02-11 15:00:00 NR -30.0138 55.9931 spur-split 961 961 _____P________ -1 -30.0138 55.9931 99 9 120
1917032S13058 1917 7 SI MM NOT_NAMED 1917-02-11 18:00:00 NR -30.2290 56.4355 spur-split 986 986 _____P________ -1 -30.2290 56.4355 99 9 119
1917032S13058 1917 7 SI MM NOT_NAMED 1917-02-11 21:00:00 NR -30.4279 56.8548 spur-split 1013 1013 _____P________ -1 -30.4279 56.8548 99 8 119
1917032S13058 1917 7 SI MM NOT_NAMED 1917-02-12 00:00:00 NR -30.6078 57.2437 spur-split 1039 1039 _____P________ -1 -30.6078 57.2437 99 7 118
1917032S13058 1917 7 SI MM NOT_NAMED 1917-02-12 03:00:00 NR -30.7661 57.5946 spur-split 1068 1068 _____P________ -1 -30.7661 57.5946 99 6 117
1917032S13058 1917 7 SI MM NOT_NAMED 1917-02-12 06:00:00 NR -30.9000 57.9000 reunion spur-split 1085 1085 _____O________ -1 -30.9000 57.9000 99 9.90000 5 117
1917032S13058 1917 7 SI MM NOT_NAMED 1917-02-12 09:00:00 NR -31.0080 58.1547 spur-split 1103 1103 _____P________ -1 -31.0080 58.1547 99 4 116
1917032S13058 1917 7 SI MM NOT_NAMED 1917-02-12 12:00:00 NR -31.0926 58.3628 spur-split 1118 1118 _____P________ -1 -31.0926 58.3628 99 4 115
1917032S13058 1917 7 SI MM NOT_NAMED 1917-02-12 15:00:00 NR -31.1573 58.5307 spur-split 1131 1131 _____P________ -1 -31.1573 58.5307 99 3 114
1917032S13058 1917 7 SI MM NOT_NAMED 1917-02-12 18:00:00 NR -31.2055 58.6650 spur-split 1137 1137 _____P________ -1 -31.2055 58.6650 99 2 112
1917032S13058 1917 7 SI MM NOT_NAMED 1917-02-12 21:00:00 NR -31.2406 58.7723 spur-split 1139 1139 _____P________ -1 -31.2406 58.7723 99 2 110
1917032S13058 1917 7 SI MM NOT_NAMED 1917-02-13 00:00:00 NR -31.2658 58.8595 spur-split 1153 1153 _____P________ -1 -31.2658 58.8595 99 1 108
1917032S13058 1917 7 SI MM NOT_NAMED 1917-02-13 03:00:00 NR -31.2845 58.9331 spur-split 1153 1153 _____P________ -1 -31.2845 58.9331 99 1 106
1917032S13058 1917 7 SI MM NOT_NAMED 1917-02-13 06:00:00 NR -31.3000 59.0000 reunion spur-split 1156 _____O________ -1 -31.3000 59.0000 99 9.90000 1 106

About IBTrACS Database

This database is a web-friendly format of International Best Track Archive for Climate Stewardship (IBTrACS), a global best track data archive curated by NOAA dating back to 1842.

Updated: 2021-10-08